createdAt,value
2023-05-22T00:01:42.784Z,36.83
2023-05-22T00:04:10.651Z,38.13
2023-05-22T00:06:37.981Z,38.30
2023-05-22T00:09:04.824Z,35.95
2023-05-22T00:11:31.781Z,37.28
2023-05-22T00:13:58.428Z,37.25
2023-05-22T00:16:25.073Z,35.63
2023-05-22T00:18:51.800Z,32.92
2023-05-22T00:21:18.541Z,37.13
2023-05-22T00:23:45.738Z,40.05
2023-05-22T00:26:16.509Z,42.65
2023-05-22T00:28:43.455Z,33.60
2023-05-22T00:31:10.226Z,38.72
2023-05-22T00:33:37.075Z,40.60
2023-05-22T00:36:04.009Z,34.47
2023-05-22T00:38:32.860Z,38.60
2023-05-22T00:41:04.795Z,37.88
2023-05-22T00:43:31.839Z,39.88
2023-05-22T00:45:58.486Z,39.17
2023-05-22T00:48:26.517Z,44.08
2023-05-22T00:50:55.786Z,47.33
2023-05-22T00:53:24.666Z,36.78
2023-05-22T00:55:52.610Z,40.40
2023-05-22T00:58:19.722Z,41.22
2023-05-22T01:00:49.280Z,36.28
2023-05-22T01:03:16.208Z,41.13
2023-05-22T01:05:43.877Z,41.05
2023-05-22T01:08:10.910Z,47.47
2023-05-22T01:10:39.278Z,44.58
2023-05-22T01:13:29.252Z,43.40
2023-05-22T01:15:55.987Z,40.20
2023-05-22T01:18:29.361Z,43.67
2023-05-22T01:21:10.399Z,40.28
2023-05-22T01:24:16.143Z,44.75
2023-05-22T01:27:28.482Z,44.65
2023-05-22T01:30:29.998Z,41.33
2023-05-22T01:32:57.701Z,43.13
2023-05-22T01:35:24.601Z,45.55
2023-05-22T01:37:51.484Z,43.17
2023-05-22T01:40:18.397Z,45.05
2023-05-22T01:42:45.629Z,40.60
2023-05-22T01:45:12.364Z,45.80
2023-05-22T01:47:39.124Z,41.53
2023-05-22T01:50:06.477Z,39.70
2023-05-22T01:52:44.992Z,51.88
2023-05-22T01:55:14.038Z,43.60
2023-05-22T01:57:47.229Z,41.70
2023-05-22T02:00:15.463Z,40.17
2023-05-22T02:02:55.461Z,37.95
2023-05-22T02:05:23.077Z,40.88
2023-05-22T02:07:50.412Z,49.88
2023-05-22T02:10:18.595Z,49.63
2023-05-22T02:12:45.675Z,44.78
2023-05-22T02:15:12.699Z,45.50
2023-05-22T02:17:40.484Z,51.97
2023-05-22T02:20:15.067Z,42.25
2023-05-22T02:22:47.308Z,43.45
2023-05-22T02:25:16.985Z,49.72
2023-05-22T02:27:46.725Z,47.85
2023-05-22T02:30:14.164Z,45.78
2023-05-22T02:32:42.256Z,44.67
2023-05-22T02:35:09.508Z,46.13
2023-05-22T02:37:36.632Z,45.58
2023-05-22T02:40:06.341Z,43.05
2023-05-22T02:42:33.338Z,48.78
2023-05-22T02:45:00.988Z,45.55
2023-05-22T02:47:27.874Z,38.97
2023-05-22T02:49:57.873Z,45.97
2023-05-22T02:52:25.053Z,43.97
2023-05-22T02:54:51.798Z,44.60
2023-05-22T02:57:19.256Z,41.70
2023-05-22T02:59:46.120Z,41.35
2023-05-22T03:02:15.017Z,47.95
2023-05-22T03:04:41.997Z,45.03
2023-05-22T03:07:09.159Z,44.50
2023-05-22T03:09:36.221Z,42.75
2023-05-22T03:12:03.097Z,43.80
2023-05-22T03:14:30.070Z,45.55
2023-05-22T03:16:58.931Z,45.17
2023-05-22T03:19:26.477Z,45.00
2023-05-22T03:21:53.433Z,40.83
2023-05-22T03:24:21.659Z,47.45
2023-05-22T03:26:48.458Z,46.58
2023-05-22T03:29:20.540Z,42.65
2023-05-22T03:31:47.275Z,43.85
2023-05-22T03:34:15.023Z,44.05
2023-05-22T03:36:45.173Z,43.20
2023-05-22T03:39:13.053Z,45.83
2023-05-22T03:41:48.118Z,48.35
2023-05-22T03:44:14.792Z,39.58
2023-05-22T03:46:44.103Z,41.35
2023-05-22T03:49:10.835Z,46.78
2023-05-22T03:51:37.443Z,45.92
2023-05-22T03:54:04.288Z,44.42
2023-05-22T03:56:30.922Z,36.75
2023-05-22T03:58:57.605Z,44.92
2023-05-22T04:01:24.384Z,39.47
2023-05-22T04:03:51.068Z,43.80
2023-05-22T04:06:21.679Z,33.10
2023-05-22T04:08:48.785Z,41.97
2023-05-22T04:11:18.665Z,41.38
2023-05-22T04:13:45.430Z,48.03
2023-05-22T04:16:12.075Z,44.20
2023-05-22T04:18:38.828Z,47.55
2023-05-22T04:21:08.175Z,37.75
2023-05-22T04:23:35.371Z,48.72
2023-05-22T04:26:04.411Z,40.63
2023-05-22T04:28:31.044Z,37.42
2023-05-22T04:30:57.762Z,44.17
2023-05-22T04:33:29.039Z,34.95
2023-05-22T04:35:57.368Z,41.13
2023-05-22T04:38:26.316Z,40.72
2023-05-22T04:40:53.053Z,46.88
2023-05-22T04:43:19.759Z,42.33
2023-05-22T04:45:46.439Z,43.40
2023-05-22T04:48:13.696Z,43.70
2023-05-22T04:50:40.638Z,43.78
2023-05-22T04:53:07.585Z,37.33
2023-05-22T04:55:34.505Z,44.33
2023-05-22T04:58:01.570Z,39.60
2023-05-22T05:00:29.119Z,38.90
2023-05-22T05:02:58.095Z,42.97
2023-05-22T05:05:25.099Z,40.28
2023-05-22T05:07:53.244Z,39.95
2023-05-22T05:10:20.025Z,38.63
2023-05-22T05:12:46.740Z,40.03
2023-05-22T05:15:13.629Z,40.22
2023-05-22T05:17:41.156Z,30.63
2023-05-22T05:20:08.537Z,39.55
2023-05-22T05:22:35.308Z,36.65
2023-05-22T05:25:05.236Z,38.53
2023-05-22T05:27:32.094Z,34.65
2023-05-22T05:29:59.021Z,35.05
2023-05-22T05:32:33.061Z,43.20
2023-05-22T05:35:08.120Z,38.25
2023-05-22T05:37:51.758Z,30.73
2023-05-22T05:40:18.563Z,38.65
2023-05-22T05:42:50.058Z,34.42
2023-05-22T05:45:19.429Z,39.83
2023-05-22T05:47:46.382Z,32.60
2023-05-22T05:50:15.619Z,34.97
2023-05-22T05:52:43.056Z,37.03
2023-05-22T05:55:14.249Z,35.00
2023-05-22T05:57:41.567Z,31.83
2023-05-22T06:00:13.491Z,38.90
2023-05-22T06:02:43.722Z,34.60
2023-05-22T06:05:29.442Z,34.17
2023-05-22T06:08:10.350Z,34.50
2023-05-22T06:10:37.432Z,34.42
2023-05-22T06:13:24.339Z,32.55
2023-05-22T06:15:51.875Z,35.70
2023-05-22T06:18:18.554Z,33.88
2023-05-22T06:20:46.932Z,31.92
2023-05-22T06:23:13.557Z,30.98
2023-05-22T06:25:40.289Z,32.67
2023-05-22T06:28:07.356Z,32.95
2023-05-22T06:30:40.084Z,33.17
2023-05-22T06:33:11.754Z,35.85
2023-05-22T06:35:40.220Z,32.17
2023-05-22T06:38:07.498Z,31.98
2023-05-22T06:40:34.462Z,31.30
2023-05-22T06:43:12.336Z,28.42
2023-05-22T06:45:49.878Z,32.15
2023-05-22T06:48:22.439Z,34.83
2023-05-22T06:51:01.524Z,33.33
2023-05-22T06:53:28.733Z,33.00
2023-05-22T06:55:56.274Z,30.05
2023-05-22T06:58:36.038Z,30.58
2023-05-22T07:01:05.916Z,28.85
2023-05-22T07:03:38.974Z,37.28
2023-05-22T07:06:39.048Z,30.25
2023-05-22T07:09:06.637Z,32.08
2023-05-22T07:11:34.053Z,26.30
2023-05-22T07:14:04.190Z,30.95
2023-05-22T07:16:31.445Z,33.58
2023-05-22T07:18:58.419Z,32.78
2023-05-22T07:21:25.877Z,29.80
2023-05-22T07:23:53.312Z,28.65
2023-05-22T07:26:22.601Z,32.70
2023-05-22T07:28:59.011Z,27.05
2023-05-22T07:31:25.919Z,34.75
2023-05-22T07:33:54.273Z,26.90
2023-05-22T07:36:21.124Z,29.67
2023-05-22T07:38:47.852Z,29.58
2023-05-22T07:41:14.678Z,27.30
2023-05-22T07:43:41.608Z,25.85
2023-05-22T07:46:10.931Z,32.45
2023-05-22T07:48:49.511Z,30.60
2023-05-22T07:51:16.820Z,24.75
2023-05-22T07:53:45.488Z,25.63
2023-05-22T07:56:12.108Z,27.38
2023-05-22T07:58:39.971Z,28.83
2023-05-22T08:01:09.541Z,24.40
2023-05-22T08:03:36.614Z,25.05
2023-05-22T08:06:04.200Z,23.98
2023-05-22T08:08:32.103Z,22.60
2023-05-22T08:13:28.503Z,26.50
2023-05-22T08:16:00.162Z,25.33
2023-05-22T08:18:29.289Z,22.30
2023-05-22T08:20:56.456Z,23.17
2023-05-22T08:23:23.128Z,26.88
2023-05-22T08:25:50.326Z,24.13
2023-05-22T08:28:17.105Z,24.58
2023-05-22T08:30:43.896Z,23.15
2023-05-22T08:33:11.813Z,22.45
2023-05-22T08:35:38.761Z,21.98
2023-05-22T08:38:05.478Z,21.83
2023-05-22T08:40:41.323Z,20.92
2023-05-22T08:43:09.413Z,17.70
2023-05-22T08:45:36.122Z,21.25
2023-05-22T08:48:07.652Z,20.90
2023-05-22T08:50:37.045Z,21.67
2023-05-22T08:53:06.640Z,18.52
2023-05-22T08:55:33.366Z,18.45
2023-05-22T08:58:00.630Z,16.75
2023-05-22T09:00:27.326Z,25.15
2023-05-22T09:02:55.788Z,17.27
2023-05-22T09:05:26.884Z,18.70
2023-05-22T09:07:56.621Z,20.13
2023-05-22T09:10:25.626Z,19.05
2023-05-22T09:13:09.258Z,17.63
2023-05-22T09:15:36.992Z,20.55
2023-05-22T09:18:05.457Z,20.52
2023-05-22T09:20:36.063Z,18.30
2023-05-22T09:23:11.132Z,18.77
2023-05-22T09:25:37.778Z,19.45
2023-05-22T09:28:04.388Z,17.98
2023-05-22T09:30:34.466Z,18.15
2023-05-22T09:33:01.167Z,23.45
2023-05-22T09:35:27.912Z,21.58
2023-05-22T09:37:55.166Z,22.80
2023-05-22T09:40:22.111Z,25.80
2023-05-22T09:42:48.840Z,18.15
2023-05-22T09:45:19.717Z,19.77
2023-05-22T09:47:49.497Z,18.67
2023-05-22T09:50:16.293Z,24.73
2023-05-22T09:52:44.798Z,20.45
2023-05-22T09:55:14.147Z,21.73
2023-05-22T09:57:43.986Z,20.85
2023-05-22T10:00:18.551Z,22.63
2023-05-22T10:03:03.606Z,19.65
2023-05-22T10:05:32.235Z,19.73
2023-05-22T10:08:10.895Z,21.02
2023-05-22T10:10:38.461Z,20.73
2023-05-22T10:13:06.397Z,21.15
2023-05-22T10:15:33.148Z,22.25
2023-05-22T10:18:00.692Z,25.27
2023-05-22T10:20:28.623Z,21.85
2023-05-22T10:22:56.052Z,23.38
2023-05-22T10:25:23.133Z,23.70
2023-05-22T10:27:52.744Z,22.27
2023-05-22T10:30:31.542Z,17.98
2023-05-22T10:33:27.379Z,23.92
2023-05-22T10:36:10.459Z,23.67
2023-05-22T10:39:01.486Z,22.08
2023-05-22T10:41:28.337Z,19.65
2023-05-22T10:43:56.736Z,21.90
2023-05-22T10:46:23.661Z,22.25
2023-05-22T10:48:52.697Z,18.35
2023-05-22T10:51:23.124Z,20.33
2023-05-22T10:53:58.488Z,16.25
2023-05-22T10:56:33.065Z,16.88
2023-05-22T10:59:08.137Z,23.17
2023-05-22T11:01:37.857Z,19.88
2023-05-22T11:04:12.106Z,17.02
2023-05-22T11:06:47.147Z,26.33
2023-05-22T11:09:21.978Z,24.48
2023-05-22T11:12:20.554Z,17.80
2023-05-22T11:14:58.125Z,20.30
2023-05-22T11:17:32.593Z,21.55
2023-05-22T11:20:11.741Z,18.20
2023-05-22T11:22:43.133Z,22.10
2023-05-22T11:25:11.683Z,26.17
2023-05-22T11:27:40.780Z,18.83
2023-05-22T11:30:08.778Z,16.27
2023-05-22T11:32:36.753Z,16.02
2023-05-22T11:35:05.424Z,15.38
2023-05-22T11:37:32.732Z,17.17
2023-05-22T11:40:04.966Z,17.67
2023-05-22T11:42:32.121Z,16.40
2023-05-22T11:44:59.490Z,19.27
2023-05-22T11:47:29.206Z,15.70
2023-05-22T11:50:02.406Z,19.15
2023-05-22T11:52:33.410Z,16.83
2023-05-22T11:55:00.404Z,20.77
2023-05-22T11:57:27.127Z,17.05
2023-05-22T11:59:53.833Z,16.67
2023-05-22T12:02:20.541Z,16.77
2023-05-22T12:04:47.228Z,16.33
2023-05-22T12:07:14.215Z,17.77
2023-05-22T12:09:42.486Z,15.95
2023-05-22T12:12:11.354Z,13.65
2023-05-22T12:14:38.430Z,14.98
2023-05-22T12:17:06.376Z,14.75
2023-05-22T12:19:33.080Z,12.30
2023-05-22T12:21:59.782Z,20.83
2023-05-22T12:24:26.541Z,16.70
2023-05-22T12:26:53.865Z,18.73
2023-05-22T12:29:23.674Z,14.43
2023-05-22T12:31:51.029Z,15.57
2023-05-22T12:34:18.764Z,18.15
2023-05-22T12:36:46.766Z,16.75
2023-05-22T12:39:18.241Z,15.30
2023-05-22T12:41:45.702Z,16.98
2023-05-22T12:44:16.415Z,14.43
2023-05-22T12:46:43.456Z,15.20
2023-05-22T12:49:10.400Z,12.98
2023-05-22T12:51:37.085Z,13.10
2023-05-22T12:54:04.111Z,11.38
2023-05-22T12:56:31.574Z,11.05
2023-05-22T12:58:58.799Z,12.38
2023-05-22T13:01:25.730Z,11.60
2023-05-22T13:03:52.740Z,10.82
2023-05-22T13:06:19.744Z,13.90
2023-05-22T13:08:46.458Z,19.75
2023-05-22T13:11:13.148Z,15.82
2023-05-22T13:13:39.996Z,14.45
2023-05-22T13:16:06.671Z,13.70
2023-05-22T13:18:33.393Z,16.58
2023-05-22T13:21:00.679Z,13.65
2023-05-22T13:23:27.382Z,12.38
2023-05-22T13:25:54.064Z,14.27
2023-05-22T13:28:21.015Z,9.38
2023-05-22T13:30:47.636Z,16.88
2023-05-22T13:33:14.300Z,12.07
2023-05-22T13:35:41.169Z,12.77
2023-05-22T13:38:08.018Z,13.75
2023-05-22T13:40:34.626Z,12.23
2023-05-22T13:43:01.256Z,14.18
2023-05-22T13:45:27.928Z,12.55
2023-05-22T13:47:54.558Z,12.60
2023-05-22T13:50:21.205Z,10.88
2023-05-22T13:52:47.835Z,19.85
2023-05-22T13:55:14.537Z,13.05
2023-05-22T13:57:41.401Z,15.55
2023-05-22T14:00:11.726Z,15.40
2023-05-22T14:02:38.542Z,18.35
2023-05-22T14:05:05.706Z,17.58
2023-05-22T14:07:32.366Z,17.23
2023-05-22T14:10:01.168Z,16.13
2023-05-22T14:12:28.311Z,16.67
2023-05-22T14:14:54.934Z,16.60
2023-05-22T14:17:21.525Z,23.10
2023-05-22T14:19:48.160Z,19.20
2023-05-22T14:22:14.768Z,18.77
2023-05-22T14:24:41.530Z,23.67
2023-05-22T14:27:08.200Z,19.92
2023-05-22T14:29:34.846Z,23.75
2023-05-22T14:32:04.166Z,23.23
2023-05-22T14:34:31.070Z,24.17
2023-05-22T14:36:58.411Z,25.08
2023-05-22T14:39:25.821Z,21.48
2023-05-22T14:41:53.500Z,22.33
2023-05-22T14:44:22.372Z,22.30
2023-05-22T14:46:50.914Z,23.88
2023-05-22T14:49:17.822Z,18.80
2023-05-22T14:51:48.347Z,21.00
2023-05-22T14:54:17.617Z,21.33
2023-05-22T14:56:44.739Z,23.08
2023-05-22T14:59:11.936Z,19.50
2023-05-22T15:01:39.124Z,22.10
2023-05-22T15:04:06.091Z,19.60
2023-05-22T15:06:32.738Z,19.45
2023-05-22T15:08:59.369Z,23.88
2023-05-22T15:11:26.593Z,19.98
2023-05-22T15:13:54.362Z,24.00
2023-05-22T15:16:22.397Z,21.80
2023-05-22T15:18:49.162Z,14.23
2023-05-22T15:21:16.834Z,10.13
2023-05-22T15:23:43.452Z,8.18
2023-05-22T15:26:10.190Z,8.68
2023-05-22T15:28:36.824Z,15.18
2023-05-22T15:31:03.553Z,14.27
2023-05-22T15:33:30.260Z,10.38
2023-05-22T15:35:56.913Z,12.82
2023-05-22T15:38:23.548Z,9.48
2023-05-22T15:40:50.173Z,12.05
2023-05-22T15:43:16.976Z,9.25
2023-05-22T15:45:46.974Z,9.48
2023-05-22T15:48:13.721Z,16.05
2023-05-22T15:50:40.741Z,7.95
2023-05-22T15:53:07.357Z,8.30
2023-05-22T15:55:34.103Z,8.38
2023-05-22T15:58:01.423Z,10.18
2023-05-22T16:00:28.442Z,8.48
2023-05-22T16:02:55.149Z,12.60
2023-05-22T16:05:22.050Z,11.73
2023-05-22T16:07:48.690Z,15.85
2023-05-22T16:10:15.516Z,9.15
2023-05-22T16:12:42.110Z,11.40
2023-05-22T16:15:09.278Z,7.88
2023-05-22T16:17:35.925Z,7.88
2023-05-22T16:20:04.660Z,10.20
2023-05-22T16:22:46.715Z,10.75
2023-05-22T16:25:16.723Z,10.80
2023-05-22T16:27:43.331Z,8.73
2023-05-22T16:30:11.229Z,6.35
2023-05-22T16:32:38.375Z,8.85
2023-05-22T16:35:05.544Z,7.18
2023-05-22T16:37:33.410Z,7.00
2023-05-22T16:40:00.155Z,7.63
2023-05-22T16:42:27.212Z,8.23
2023-05-22T16:44:53.951Z,8.05
2023-05-22T16:47:21.413Z,7.80
2023-05-22T16:49:48.055Z,5.82
2023-05-22T16:52:14.634Z,7.10
2023-05-22T16:54:41.282Z,8.25
2023-05-22T16:57:07.920Z,7.60
2023-05-22T16:59:34.714Z,6.75
2023-05-22T17:02:01.449Z,8.52
2023-05-22T17:04:28.145Z,8.45
2023-05-22T17:06:55.678Z,9.38
2023-05-22T17:09:22.391Z,7.90
2023-05-22T17:11:49.084Z,6.40
2023-05-22T17:14:15.680Z,7.18
2023-05-22T17:16:42.432Z,8.77
2023-05-22T17:19:09.769Z,10.95
2023-05-22T17:21:36.990Z,9.32
2023-05-22T17:24:03.890Z,9.35
2023-05-22T17:26:30.575Z,10.38
2023-05-22T17:28:57.228Z,12.82
2023-05-22T17:31:23.819Z,7.25
2023-05-22T17:33:50.853Z,6.47
2023-05-22T17:36:17.453Z,8.55
2023-05-22T17:38:44.081Z,5.40
2023-05-22T17:41:10.699Z,10.60
2023-05-22T17:43:38.262Z,10.35
2023-05-22T17:46:05.798Z,7.55
2023-05-22T17:48:33.602Z,5.70
2023-05-22T17:51:00.670Z,6.15
2023-05-22T17:53:31.968Z,7.15
2023-05-22T17:55:58.606Z,11.23
2023-05-22T17:58:25.257Z,5.93
2023-05-22T18:00:52.082Z,7.88
2023-05-22T18:03:22.270Z,6.60
2023-05-22T18:05:49.663Z,8.00
2023-05-22T18:08:17.424Z,7.53
2023-05-22T18:10:44.188Z,8.80
2023-05-22T18:13:10.854Z,6.35
2023-05-22T18:15:37.561Z,9.15
2023-05-22T18:18:04.459Z,8.32
2023-05-22T18:20:33.033Z,8.15
2023-05-22T18:23:00.202Z,6.65
2023-05-22T18:25:26.900Z,9.63
2023-05-22T18:27:53.584Z,8.07
2023-05-22T18:30:20.588Z,6.07
2023-05-22T18:32:47.385Z,6.47
2023-05-22T18:35:14.082Z,9.52
2023-05-22T18:37:41.041Z,5.80
2023-05-22T18:40:09.659Z,7.50
2023-05-22T18:42:36.541Z,8.18
2023-05-22T18:45:03.764Z,7.22
2023-05-22T18:47:30.492Z,7.65
2023-05-22T18:49:57.117Z,8.32
2023-05-22T18:52:23.806Z,8.63
2023-05-22T18:54:50.421Z,7.63
2023-05-22T18:57:17.065Z,12.15
2023-05-22T18:59:43.788Z,8.95
2023-05-22T19:02:10.692Z,6.18
2023-05-22T19:04:37.355Z,9.00
2023-05-22T19:07:04.128Z,9.02
2023-05-22T19:09:30.691Z,10.63
2023-05-22T19:11:57.337Z,8.30
2023-05-22T19:14:23.955Z,9.52
2023-05-22T19:16:50.796Z,6.50
2023-05-22T19:19:17.504Z,7.65
2023-05-22T19:21:44.126Z,9.57
2023-05-22T19:24:10.825Z,8.77
2023-05-22T19:26:37.464Z,8.05
2023-05-22T19:29:04.105Z,9.20
2023-05-22T19:31:30.894Z,9.00
2023-05-22T19:33:57.564Z,8.55
2023-05-22T19:36:24.266Z,9.38
2023-05-22T19:38:53.218Z,11.63
2023-05-22T19:41:20.593Z,10.27
2023-05-22T19:43:47.261Z,8.40
2023-05-22T19:46:14.077Z,12.40
2023-05-22T19:48:40.755Z,8.68
2023-05-22T19:51:08.705Z,10.23
2023-05-22T19:53:36.452Z,9.25
2023-05-22T19:56:03.366Z,9.38
2023-05-22T19:58:29.985Z,13.10
2023-05-22T20:00:56.581Z,10.75
2023-05-22T20:03:24.297Z,13.32
2023-05-22T20:05:53.132Z,9.73
2023-05-22T20:08:21.586Z,12.32
2023-05-22T20:10:48.436Z,13.68
2023-05-22T20:13:15.011Z,13.30
2023-05-22T20:15:41.944Z,11.13
2023-05-22T20:18:10.617Z,10.15
2023-05-22T20:20:37.378Z,13.13
2023-05-22T20:23:03.958Z,10.50
2023-05-22T20:25:30.584Z,12.30
2023-05-22T20:27:57.161Z,12.32
2023-05-22T20:30:23.803Z,12.75
2023-05-22T20:32:50.549Z,15.63
2023-05-22T20:35:22.079Z,12.68
2023-05-22T20:37:48.764Z,13.50
2023-05-22T20:40:15.974Z,16.27
2023-05-22T20:42:42.787Z,16.27
2023-05-22T20:45:12.870Z,20.05
2023-05-22T20:47:41.133Z,15.75
2023-05-22T20:50:08.975Z,19.75
2023-05-22T20:52:37.070Z,20.75
2023-05-22T20:55:04.183Z,19.73
2023-05-22T20:57:30.982Z,19.33
2023-05-22T20:59:58.343Z,17.63
2023-05-22T21:02:26.029Z,16.13
2023-05-22T21:04:53.055Z,13.63
2023-05-22T21:07:19.820Z,14.25
2023-05-22T21:09:46.467Z,11.05
2023-05-22T21:12:13.102Z,12.57
2023-05-22T21:14:40.279Z,9.68
2023-05-22T21:17:07.163Z,11.55
2023-05-22T21:19:33.949Z,11.52
2023-05-22T21:22:00.753Z,12.38
2023-05-22T21:24:27.421Z,11.98
2023-05-22T21:26:54.033Z,13.30
2023-05-22T21:29:20.719Z,12.15
2023-05-22T21:31:47.303Z,13.10
2023-05-22T21:34:14.037Z,11.80
2023-05-22T21:36:40.667Z,11.93
2023-05-22T21:39:07.295Z,12.60
2023-05-22T21:41:34.104Z,14.80
2023-05-22T21:44:00.902Z,11.73
2023-05-22T21:46:27.552Z,14.48
2023-05-22T21:48:54.196Z,12.93
2023-05-22T21:51:20.856Z,13.25
2023-05-22T21:53:47.482Z,14.45
2023-05-22T21:56:14.067Z,16.70
2023-05-22T21:58:40.692Z,14.27
2023-05-22T22:01:07.292Z,18.20
2023-05-22T22:03:33.961Z,17.88
2023-05-22T22:06:01.837Z,18.05
2023-05-22T22:08:29.378Z,20.10
2023-05-22T22:10:56.215Z,18.67
2023-05-22T22:13:22.850Z,18.67
2023-05-22T22:15:49.506Z,22.88
2023-05-22T22:18:16.221Z,26.25
2023-05-22T22:20:45.349Z,23.60
2023-05-22T22:23:12.704Z,23.92
2023-05-22T22:25:39.689Z,26.38
2023-05-22T22:28:07.268Z,23.08
2023-05-22T22:30:35.083Z,25.00
2023-05-22T22:33:01.844Z,28.67
2023-05-22T22:35:28.672Z,25.60
2023-05-22T22:37:55.447Z,24.02
2023-05-22T22:40:22.742Z,24.85
2023-05-22T22:42:50.549Z,26.55
2023-05-22T22:45:17.777Z,22.85
2023-05-22T22:47:44.427Z,23.77
2023-05-22T22:50:11.282Z,23.10
2023-05-22T22:52:38.266Z,21.77
2023-05-22T22:55:06.669Z,24.15
2023-05-22T22:57:33.464Z,24.70
2023-05-22T23:00:00.142Z,27.70
2023-05-22T23:02:26.792Z,24.15
2023-05-22T23:04:53.484Z,25.58
2023-05-22T23:07:20.245Z,23.58
2023-05-22T23:09:46.913Z,25.00
2023-05-22T23:12:13.493Z,25.50
2023-05-22T23:14:40.139Z,26.35
2023-05-22T23:17:06.760Z,32.45
2023-05-22T23:19:33.443Z,29.60
2023-05-22T23:22:00.062Z,32.40
2023-05-22T23:24:26.689Z,38.65
2023-05-22T23:26:53.365Z,40.25
2023-05-22T23:29:20.230Z,41.05
2023-05-22T23:31:47.545Z,39.50
2023-05-22T23:34:14.368Z,37.95
2023-05-22T23:36:41.173Z,39.25
2023-05-22T23:39:07.905Z,42.20
2023-05-22T23:41:35.457Z,41.90
2023-05-22T23:44:02.491Z,45.42
2023-05-22T23:46:29.477Z,41.38
2023-05-22T23:48:56.343Z,45.80
2023-05-22T23:51:23.047Z,42.15
2023-05-22T23:53:49.735Z,51.70
2023-05-22T23:56:16.965Z,48.13
2023-05-22T23:58:43.787Z,59.83
